Time;durP1;ratioP1;P1;durP2;ratioP2;P2;SDS_P1;SDS_P2;PMS_P1;PMS_P2;Temp;Humidity;BMP_temperature;BMP_pressure;BME280_temperature;BME280_humidity;BME280_pressure;Samples;Min_cycle;Max_cycle;Signal;HPM_P1;HPM_P2
2021/08/15 00:00:49;;;;;;;8.70;8.10;;;;;;;;;;4989571;28;24409;-64
2021/08/15 00:03:14;;;;;;;9.20;8.60;;;;;;;;;;4988837;28;24835;-63
2021/08/15 00:05:39;;;;;;;9.47;8.77;;;;;;;;;;4987368;28;24420;-63
2021/08/15 00:08:04;;;;;;;9.40;8.60;;;;;;;;;;4990002;28;24483;-62
2021/08/15 00:10:30;;;;;;;9.90;9.10;;;;;;;;;;4988945;28;24824;-62
2021/08/15 00:12:55;;;;;;;9.80;9.10;;;;;;;;;;4990267;28;24464;-62
2021/08/15 00:15:20;;;;;;;9.07;8.37;;;;;;;;;;4989789;28;24975;-62
2021/08/15 00:17:45;;;;;;;9.10;8.50;;;;;;;;;;4988521;28;24479;-61
2021/08/15 00:20:11;;;;;;;10.27;9.37;;;;;;;;;;4990270;28;24467;-62
2021/08/15 00:22:38;;;;;;;9.50;8.80;;;;;;;;;;4989845;28;24861;-62
2021/08/15 00:25:03;;;;;;;10.00;9.27;;;;;;;;;;4990645;28;24491;-62
2021/08/15 00:27:28;;;;;;;10.00;9.20;;;;;;;;;;4986899;28;24524;-61
2021/08/15 00:29:53;;;;;;;10.57;9.68;;;;;;;;;;4984697;28;24413;-62
2021/08/15 00:32:18;;;;;;;10.47;9.67;;;;;;;;;;4986253;28;24449;-61
2021/08/15 00:34:44;;;;;;;10.43;9.63;;;;;;;;;;4988769;28;24405;-62
2021/08/15 00:37:09;;;;;;;11.20;10.40;;;;;;;;;;4988024;28;24421;-61
2021/08/15 00:39:34;;;;;;;11.70;10.80;;;;;;;;;;4988594;28;24505;-62
2021/08/15 00:41:59;;;;;;;11.55;10.73;;;;;;;;;;4989043;28;24491;-61
2021/08/15 00:44:24;;;;;;;11.10;10.30;;;;;;;;;;4988811;28;24435;-62
2021/08/15 00:46:50;;;;;;;11.10;10.10;;;;;;;;;;4989888;28;24475;-61
2021/08/15 00:49:15;;;;;;;11.00;10.20;;;;;;;;;;4986372;28;24981;-61
2021/08/15 00:51:40;;;;;;;11.03;10.23;;;;;;;;;;4989655;28;24946;-62
2021/08/15 00:54:05;;;;;;;12.10;11.10;;;;;;;;;;4988805;28;24441;-62
2021/08/15 00:56:31;;;;;;;10.60;9.80;;;;;;;;;;4989983;28;24471;-61
2021/08/15 00:58:56;;;;;;;11.40;10.40;;;;;;;;;;4986560;28;24436;-61
2021/08/15 01:01:21;;;;;;;11.60;10.70;;;;;;;;;;4988225;28;24417;-61
2021/08/15 01:03:46;;;;;;;11.60;10.70;;;;;;;;;;4987756;28;24559;-61
2021/08/15 01:06:12;;;;;;;11.30;10.40;;;;;;;;;;4988268;28;24425;-61
2021/08/15 01:08:37;;;;;;;11.90;11.00;;;;;;;;;;4987570;28;25199;-62
2021/08/15 01:11:06;;;;;;;11.90;11.00;;;;;;;;;;4988776;28;25307;-61
2021/08/15 01:13:32;;;;;;;11.77;10.88;;;;;;;;;;4989849;28;24974;-62
2021/08/15 01:15:58;;;;;;;11.93;11.02;;;;;;;;;;4988368;28;24425;-63
2021/08/15 01:18:25;;;;;;;10.77;9.98;;;;;;;;;;4986640;28;24427;-63
2021/08/15 01:21:00;;;;;;;10.00;9.30;;;;;;;;;;4984313;28;24599;-62
2021/08/15 01:23:26;;;;;;;10.80;10.00;;;;;;;;;;4988798;28;25009;-62
2021/08/15 01:25:51;;;;;;;11.03;10.23;;;;;;;;;;4988202;28;24429;-61
2021/08/15 01:28:17;;;;;;;12.10;11.10;;;;;;;;;;4987126;28;24424;-62
2021/08/15 01:30:42;;;;;;;10.13;9.43;;;;;;;;;;4986461;28;25005;-62
2021/08/15 01:33:09;;;;;;;11.50;10.50;;;;;;;;;;4988365;28;24417;-62
2021/08/15 01:35:34;;;;;;;10.07;9.37;;;;;;;;;;4988629;28;24515;-63
2021/08/15 01:37:59;;;;;;;11.23;10.32;;;;;;;;;;4987538;28;24542;-63
2021/08/15 01:40:24;;;;;;;11.60;10.70;;;;;;;;;;4988961;28;24506;-62
2021/08/15 01:42:49;;;;;;;10.82;10.02;;;;;;;;;;4986706;28;24413;-62
2021/08/15 01:45:15;;;;;;;10.70;9.80;;;;;;;;;;4988759;28;24935;-62
2021/08/15 01:47:40;;;;;;;11.73;10.82;;;;;;;;;;4987870;28;24520;-62
2021/08/15 01:50:06;;;;;;;10.90;10.10;;;;;;;;;;4986258;28;24420;-61
2021/08/15 01:52:31;;;;;;;10.47;9.67;;;;;;;;;;4985084;28;24436;-62
2021/08/15 01:54:56;;;;;;;10.87;10.07;;;;;;;;;;4987150;28;24448;-61
2021/08/15 01:57:21;;;;;;;10.75;9.95;;;;;;;;;;4986731;28;24443;-62
2021/08/15 01:59:46;;;;;;;11.00;10.20;;;;;;;;;;4988867;28;24508;-61
2021/08/15 02:02:11;;;;;;;11.75;10.85;;;;;;;;;;4983613;28;24417;-61
2021/08/15 02:04:36;;;;;;;10.87;9.97;;;;;;;;;;4986774;28;24425;-62
2021/08/15 02:07:03;;;;;;;11.03;10.23;;;;;;;;;;4988281;28;25003;-63
2021/08/15 02:09:28;;;;;;;11.90;10.90;;;;;;;;;;4987029;28;24511;-62
2021/08/15 02:11:53;;;;;;;10.77;9.98;;;;;;;;;;4987907;28;24572;-62
2021/08/15 02:14:18;;;;;;;12.18;11.20;;;;;;;;;;4987490;28;24975;-62
2021/08/15 02:16:43;;;;;;;11.20;10.30;;;;;;;;;;4988628;28;24413;-62
2021/08/15 02:19:09;;;;;;;11.00;10.20;;;;;;;;;;4987687;28;24427;-62
2021/08/15 02:21:34;;;;;;;11.03;10.20;;;;;;;;;;4988059;28;24775;-62
2021/08/15 02:23:59;;;;;;;10.73;9.93;;;;;;;;;;4985941;28;24475;-62
2021/08/15 02:26:24;;;;;;;11.63;10.70;;;;;;;;;;4987373;28;24431;-61
2021/08/15 02:28:49;;;;;;;11.20;10.25;;;;;;;;;;4985567;28;24499;-61
2021/08/15 02:31:14;;;;;;;10.73;9.83;;;;;;;;;;4988274;28;24416;-61
2021/08/15 02:33:39;;;;;;;10.57;9.77;;;;;;;;;;4987891;28;24480;-61
2021/08/15 02:36:05;;;;;;;11.30;10.30;;;;;;;;;;4987620;28;24409;-61
2021/08/15 02:38:30;;;;;;;10.60;9.80;;;;;;;;;;4988611;28;24932;-61
2021/08/15 02:40:55;;;;;;;11.05;10.15;;;;;;;;;;4988398;28;24467;-62
2021/08/15 02:43:20;;;;;;;10.80;10.00;;;;;;;;;;4988817;28;24404;-62
2021/08/15 02:45:45;;;;;;;11.80;10.90;;;;;;;;;;4988754;28;25151;-62
2021/08/15 02:48:11;;;;;;;11.60;10.60;;;;;;;;;;4988284;28;24879;-62
2021/08/15 02:50:36;;;;;;;11.40;10.50;;;;;;;;;;4987950;28;24427;-62
2021/08/15 02:53:01;;;;;;;11.50;10.60;;;;;;;;;;4986690;28;24465;-62
2021/08/15 02:55:26;;;;;;;10.70;9.90;;;;;;;;;;4988721;28;25231;-61
2021/08/15 02:57:51;;;;;;;10.40;9.60;;;;;;;;;;4981805;28;24982;-61
2021/08/15 03:00:17;;;;;;;10.90;10.00;;;;;;;;;;4987577;28;25032;-61
2021/08/15 03:02:42;;;;;;;11.53;10.63;;;;;;;;;;4987091;28;24963;-62
2021/08/15 03:05:08;;;;;;;10.55;9.75;;;;;;;;;;4987979;28;24417;-62
2021/08/15 03:07:33;;;;;;;11.45;10.55;;;;;;;;;;4986906;28;24429;-62
2021/08/15 03:09:58;;;;;;;10.70;9.90;;;;;;;;;;4987245;28;24417;-62
2021/08/15 03:12:23;;;;;;;10.30;9.50;;;;;;;;;;4985426;28;24520;-61
2021/08/15 03:14:49;;;;;;;10.30;9.50;;;;;;;;;;4987790;28;25001;-62
2021/08/15 03:17:14;;;;;;;11.17;10.27;;;;;;;;;;4987745;28;24924;-62
2021/08/15 03:19:39;;;;;;;10.77;9.87;;;;;;;;;;4983341;28;24520;-62
2021/08/15 03:22:05;;;;;;;11.30;10.40;;;;;;;;;;4984876;28;24475;-62
2021/08/15 03:24:30;;;;;;;10.30;9.50;;;;;;;;;;4984251;28;24516;-62
2021/08/15 03:26:55;;;;;;;10.57;9.67;;;;;;;;;;4986905;28;24564;-62
2021/08/15 03:29:20;;;;;;;10.52;9.73;;;;;;;;;;4986382;28;24432;-62
2021/08/15 03:31:46;;;;;;;10.38;9.57;;;;;;;;;;4986867;28;24479;-62
2021/08/15 03:34:12;;;;;;;10.43;9.63;;;;;;;;;;4986962;28;24417;-63
2021/08/15 03:36:37;;;;;;;10.40;9.60;;;;;;;;;;4987938;28;25470;-62
2021/08/15 03:39:03;;;;;;;10.40;9.60;;;;;;;;;;4987450;28;24409;-62
2021/08/15 03:41:28;;;;;;;10.13;9.32;;;;;;;;;;4988066;28;24393;-62
2021/08/15 03:43:53;;;;;;;10.70;9.90;;;;;;;;;;4987835;28;24479;-62
2021/08/15 03:46:18;;;;;;;11.57;10.68;;;;;;;;;;4986864;28;24958;-62
2021/08/15 03:48:44;;;;;;;10.60;9.80;;;;;;;;;;4986976;28;24409;-62
2021/08/15 03:51:09;;;;;;;10.48;9.68;;;;;;;;;;4985984;28;24507;-62
2021/08/15 03:53:34;;;;;;;10.43;9.63;;;;;;;;;;4987289;28;25083;-62
2021/08/15 03:55:59;;;;;;;10.20;9.40;;;;;;;;;;4984612;28;24476;-62
2021/08/15 03:58:24;;;;;;;10.27;9.47;;;;;;;;;;4986959;28;24781;-62
2021/08/15 04:00:50;;;;;;;9.57;8.80;;;;;;;;;;4983146;28;24492;-62
2021/08/15 04:03:15;;;;;;;10.67;9.87;;;;;;;;;;4985296;28;24417;-62
2021/08/15 04:05:40;;;;;;;10.60;9.80;;;;;;;;;;4986594;28;24429;-63
2021/08/15 04:08:06;;;;;;;9.80;9.00;;;;;;;;;;4989660;28;24433;-63
2021/08/15 04:10:32;;;;;;;9.47;8.77;;;;;;;;;;4987966;28;24503;-62
2021/08/15 04:12:57;;;;;;;10.40;9.50;;;;;;;;;;4989997;28;24818;-62
2021/08/15 04:15:22;;;;;;;10.00;9.20;;;;;;;;;;4991066;28;24413;-62
2021/08/15 04:17:47;;;;;;;10.37;9.57;;;;;;;;;;4988561;28;24451;-62
2021/08/15 04:20:12;;;;;;;10.00;9.30;;;;;;;;;;4990347;28;24419;-62
2021/08/15 04:22:38;;;;;;;9.57;8.87;;;;;;;;;;4990334;28;24464;-62
2021/08/15 04:25:03;;;;;;;10.30;9.45;;;;;;;;;;4994670;28;24970;-62
2021/08/15 04:27:28;;;;;;;9.30;8.60;;;;;;;;;;4989026;28;24465;-62
2021/08/15 04:29:53;;;;;;;9.43;8.73;;;;;;;;;;4988315;28;24433;-62
2021/08/15 04:32:18;;;;;;;9.50;8.90;;;;;;;;;;4988978;28;24441;-62
2021/08/15 04:34:44;;;;;;;8.85;8.25;;;;;;;;;;4990300;28;24421;-63
2021/08/15 04:37:09;;;;;;;8.90;8.20;;;;;;;;;;4990072;28;25329;-63
2021/08/15 04:39:35;;;;;;;8.40;7.80;;;;;;;;;;4987591;28;25094;-63
2021/08/15 04:42:00;;;;;;;9.75;8.90;;;;;;;;;;4990710;28;24440;-63
2021/08/15 04:44:25;;;;;;;9.00;8.20;;;;;;;;;;4989762;28;24973;-63
2021/08/15 04:46:51;;;;;;;7.87;7.17;;;;;;;;;;4990296;28;24524;-64
2021/08/15 04:49:16;;;;;;;8.90;8.20;;;;;;;;;;4987923;28;24440;-63
2021/08/15 04:51:41;;;;;;;9.07;8.37;;;;;;;;;;4988686;28;24544;-63
2021/08/15 04:54:06;;;;;;;7.90;7.30;;;;;;;;;;4990417;28;24492;-62
2021/08/15 04:56:31;;;;;;;7.30;6.80;;;;;;;;;;4988991;28;24440;-62
2021/08/15 04:58:56;;;;;;;8.13;7.45;;;;;;;;;;4988145;28;24967;-63
2021/08/15 05:01:21;;;;;;;7.50;6.90;;;;;;;;;;4989889;28;24467;-62
2021/08/15 05:03:49;;;;;;;6.30;5.90;;;;;;;;;;4987564;28;24428;-61
2021/08/15 05:06:14;;;;;;;8.70;8.10;;;;;;;;;;4983384;28;24772;-62
2021/08/15 05:08:40;;;;;;;6.97;6.47;;;;;;;;;;4985800;28;24414;-62
2021/08/15 05:11:05;;;;;;;6.60;6.10;;;;;;;;;;4984354;28;24409;-62
2021/08/15 05:13:30;;;;;;;7.85;7.25;;;;;;;;;;4983994;28;24580;-63
2021/08/15 05:15:55;;;;;;;8.60;8.00;;;;;;;;;;4979673;28;24482;-62
2021/08/15 05:18:20;;;;;;;10.90;10.00;;;;;;;;;;4981654;28;24428;-62
2021/08/15 05:20:46;;;;;;;9.40;8.60;;;;;;;;;;4978347;28;24507;-62
2021/08/15 05:23:12;;;;;;;9.60;8.80;;;;;;;;;;4985105;28;24400;-63
2021/08/15 05:25:37;;;;;;;10.05;9.30;;;;;;;;;;4979019;28;24508;-62
2021/08/15 05:28:03;;;;;;;9.27;8.57;;;;;;;;;;4988968;28;25113;-63
2021/08/15 05:30:28;;;;;;;9.50;8.70;;;;;;;;;;4988865;28;24405;-62
2021/08/15 05:32:54;;;;;;;9.03;8.23;;;;;;;;;;4988483;28;24431;-63
2021/08/15 05:35:19;;;;;;;11.10;10.10;;;;;;;;;;4987029;28;24827;-62
2021/08/15 05:37:44;;;;;;;9.90;9.20;;;;;;;;;;4993960;28;25070;-62
2021/08/15 05:40:09;;;;;;;10.20;9.40;;;;;;;;;;4988668;28;24483;-63
2021/08/15 05:42:34;;;;;;;10.17;9.27;;;;;;;;;;4988922;28;24722;-62
2021/08/15 05:45:00;;;;;;;10.00;9.10;;;;;;;;;;4988416;28;24823;-62
2021/08/15 05:47:25;;;;;;;10.27;9.27;;;;;;;;;;4988261;28;24436;-63
2021/08/15 05:49:51;;;;;;;10.07;9.20;;;;;;;;;;4988712;28;24467;-64
2021/08/15 05:52:16;;;;;;;9.10;8.38;;;;;;;;;;4988750;28;24435;-63
2021/08/15 05:54:41;;;;;;;9.43;8.63;;;;;;;;;;4987294;28;24437;-64
2021/08/15 05:57:06;;;;;;;10.13;9.25;;;;;;;;;;4989249;28;24405;-63
2021/08/15 05:59:33;;;;;;;9.02;8.32;;;;;;;;;;4988000;28;24431;-63
2021/08/15 06:01:58;;;;;;;8.50;7.90;;;;;;;;;;4989053;28;24481;-64
2021/08/15 06:04:23;;;;;;;8.52;7.90;;;;;;;;;;4988069;28;24424;-64
2021/08/15 06:06:48;;;;;;;8.83;8.10;;;;;;;;;;4983461;28;24464;-64
2021/08/15 06:09:13;;;;;;;7.93;7.33;;;;;;;;;;4983037;28;25007;-64
2021/08/15 06:11:38;;;;;;;7.97;7.38;;;;;;;;;;4986353;28;25078;-64
2021/08/15 06:14:04;;;;;;;9.33;8.63;;;;;;;;;;4987233;28;24408;-65
2021/08/15 06:16:29;;;;;;;8.50;7.80;;;;;;;;;;4988281;28;25164;-64
2021/08/15 06:18:54;;;;;;;8.77;8.13;;;;;;;;;;4988179;28;24870;-64
2021/08/15 06:21:19;;;;;;;8.23;7.53;;;;;;;;;;4989054;28;24401;-64
2021/08/15 06:23:46;;;;;;;7.10;6.60;;;;;;;;;;4989034;28;24990;-64
2021/08/15 06:26:11;;;;;;;7.13;6.63;;;;;;;;;;4980907;28;24788;-65
2021/08/15 06:28:36;;;;;;;7.10;6.50;;;;;;;;;;4983765;28;24978;-64
2021/08/15 06:31:01;;;;;;;6.70;6.20;;;;;;;;;;4991762;28;24548;-64
2021/08/15 06:33:27;;;;;;;7.13;6.63;;;;;;;;;;4984865;28;24978;-65
2021/08/15 06:35:52;;;;;;;8.00;7.40;;;;;;;;;;4981876;28;24963;-64
2021/08/15 06:38:17;;;;;;;8.20;7.60;;;;;;;;;;4979832;28;24526;-65
2021/08/15 06:40:42;;;;;;;8.10;7.50;;;;;;;;;;4981744;28;24420;-64
2021/08/15 06:43:08;;;;;;;8.60;7.80;;;;;;;;;;4983194;28;24943;-64
2021/08/15 06:45:33;;;;;;;7.30;6.70;;;;;;;;;;4981334;28;24844;-64
2021/08/15 06:47:59;;;;;;;8.98;8.18;;;;;;;;;;4980303;28;24867;-65
2021/08/15 06:50:24;;;;;;;8.10;7.50;;;;;;;;;;4981165;28;24417;-65
2021/08/15 06:52:49;;;;;;;8.90;8.20;;;;;;;;;;5001864;28;24989;-65
2021/08/15 06:55:14;;;;;;;7.93;7.22;;;;;;;;;;5000371;28;24423;-65
2021/08/15 06:57:39;;;;;;;9.70;8.90;;;;;;;;;;5000813;28;24511;-63
2021/08/15 07:00:05;;;;;;;7.57;6.97;;;;;;;;;;4998716;28;24400;-63
2021/08/15 07:02:34;;;;;;;7.28;6.68;;;;;;;;;;5004080;28;24484;-63
2021/08/15 07:05:00;;;;;;;8.32;7.53;;;;;;;;;;4986980;28;24994;-64
2021/08/15 07:07:25;;;;;;;6.93;6.32;;;;;;;;;;4978944;28;24454;-64
2021/08/15 07:09:50;;;;;;;7.20;6.65;;;;;;;;;;4979100;28;24740;-64
2021/08/15 07:12:15;;;;;;;7.43;6.82;;;;;;;;;;4980820;28;24447;-64
2021/08/15 07:14:42;;;;;;;8.60;7.90;;;;;;;;;;4984469;28;24393;-64
2021/08/15 07:17:07;;;;;;;7.03;6.53;;;;;;;;;;4980567;28;24843;-64
2021/08/15 07:19:32;;;;;;;6.20;5.70;;;;;;;;;;4980556;28;24909;-64
2021/08/15 07:21:57;;;;;;;8.18;7.47;;;;;;;;;;4979267;28;24425;-64
2021/08/15 07:24:22;;;;;;;8.70;8.00;;;;;;;;;;4978969;28;24385;-63
2021/08/15 07:26:47;;;;;;;6.40;5.90;;;;;;;;;;4982386;28;25053;-64
2021/08/15 07:29:12;;;;;;;6.90;6.30;;;;;;;;;;4984360;28;24481;-64
2021/08/15 07:31:38;;;;;;;7.50;6.90;;;;;;;;;;4980786;28;24435;-63
2021/08/15 07:34:03;;;;;;;8.60;7.90;;;;;;;;;;4978567;28;24397;-67
2021/08/15 07:36:30;;;;;;;6.78;6.18;;;;;;;;;;4978635;28;25124;-64
2021/08/15 07:38:55;;;;;;;6.60;6.00;;;;;;;;;;4983812;28;25267;-64
2021/08/15 07:41:21;;;;;;;9.20;8.38;;;;;;;;;;4987966;28;24496;-63
2021/08/15 07:43:46;;;;;;;8.17;7.57;;;;;;;;;;4984483;28;24701;-64
2021/08/15 07:46:14;;;;;;;8.63;7.83;;;;;;;;;;4964717;28;24548;-63
2021/08/15 07:48:42;;;;;;;7.40;6.80;;;;;;;;;;4984148;28;24455;-64
2021/08/15 07:51:07;;;;;;;8.02;7.30;;;;;;;;;;4982371;28;24440;-64
2021/08/15 07:53:32;;;;;;;6.97;6.47;;;;;;;;;;4987915;28;24437;-64
2021/08/15 07:55:58;;;;;;;6.40;5.90;;;;;;;;;;4986061;28;24921;-64
2021/08/15 07:58:23;;;;;;;6.70;6.20;;;;;;;;;;4982166;28;24408;-64
2021/08/15 08:00:49;;;;;;;7.70;7.10;;;;;;;;;;4982348;28;24389;-64
2021/08/15 08:03:14;;;;;;;7.15;6.45;;;;;;;;;;4985709;28;24447;-64
2021/08/15 08:05:40;;;;;;;7.90;7.20;;;;;;;;;;4987500;28;25069;-64
2021/08/15 08:08:06;;;;;;;6.97;6.38;;;;;;;;;;4983905;28;24449;-65
2021/08/15 08:10:31;;;;;;;7.35;6.75;;;;;;;;;;4982852;28;24948;-64
2021/08/15 08:12:56;;;;;;;6.80;6.30;;;;;;;;;;4982175;28;24467;-63
2021/08/15 08:15:21;;;;;;;5.63;5.13;;;;;;;;;;4987356;28;24428;-64
2021/08/15 08:17:47;;;;;;;6.97;6.33;;;;;;;;;;4985594;28;24386;-64
2021/08/15 08:20:13;;;;;;;6.40;5.80;;;;;;;;;;4983861;28;24513;-65
2021/08/15 08:22:38;;;;;;;7.00;6.40;;;;;;;;;;4983611;28;24404;-64
2021/08/15 08:25:03;;;;;;;8.80;8.00;;;;;;;;;;4982347;28;24788;-64
2021/08/15 08:27:28;;;;;;;8.57;7.77;;;;;;;;;;4984905;28;24811;-64
2021/08/15 08:29:54;;;;;;;8.10;7.40;;;;;;;;;;4985293;28;24997;-64
2021/08/15 08:32:19;;;;;;;8.10;7.30;;;;;;;;;;4983078;28;24397;-65
2021/08/15 08:34:44;;;;;;;8.25;7.55;;;;;;;;;;4982223;28;24393;-65
2021/08/15 08:37:10;;;;;;;7.03;6.45;;;;;;;;;;4983367;28;24922;-65
2021/08/15 08:39:35;;;;;;;7.30;6.70;;;;;;;;;;4985221;28;24456;-65
2021/08/15 08:42:02;;;;;;;8.57;7.77;;;;;;;;;;4985186;28;24416;-64
2021/08/15 08:44:31;;;;;;;7.75;7.05;;;;;;;;;;4982943;28;24468;-65
2021/08/15 08:47:00;;;;;;;7.28;6.68;;;;;;;;;;4981111;28;24432;-64
2021/08/15 08:49:25;;;;;;;5.40;5.00;;;;;;;;;;4980590;28;24977;-65
2021/08/15 08:51:50;;;;;;;8.30;7.50;;;;;;;;;;4985039;28;24951;-64
2021/08/15 08:54:17;;;;;;;6.03;5.53;;;;;;;;;;4986619;28;24520;-65
2021/08/15 08:56:42;;;;;;;5.50;5.10;;;;;;;;;;4982865;28;24495;-65
2021/08/15 08:59:07;;;;;;;7.40;6.70;;;;;;;;;;4981184;28;24401;-65
2021/08/15 09:01:32;;;;;;;6.63;6.13;;;;;;;;;;4981111;28;24817;-65
2021/08/15 09:03:58;;;;;;;7.00;6.40;;;;;;;;;;4986796;28;24926;-64
2021/08/15 09:06:24;;;;;;;5.13;4.53;;;;;;;;;;4984335;28;24432;-65
2021/08/15 09:08:50;;;;;;;5.93;5.45;;;;;;;;;;4980981;28;24428;-65
2021/08/15 09:11:17;;;;;;;4.90;4.50;;;;;;;;;;4981127;28;24439;-65
2021/08/15 09:13:43;;;;;;;5.60;5.10;;;;;;;;;;4982863;28;24385;-64
2021/08/15 09:16:09;;;;;;;5.82;5.32;;;;;;;;;;4986161;28;24451;-65
2021/08/15 09:18:34;;;;;;;6.40;5.80;;;;;;;;;;4984003;28;24796;-65
2021/08/15 09:20:59;;;;;;;5.80;5.30;;;;;;;;;;4981132;28;24380;-64
2021/08/15 09:23:26;;;;;;;5.93;5.43;;;;;;;;;;4980668;28;24820;-65
2021/08/15 09:26:10;;;;;;;6.45;5.85;;;;;;;;;;4982651;28;24444;-66
2021/08/15 09:28:35;;;;;;;6.40;5.90;;;;;;;;;;4985534;28;24444;-65
2021/08/15 09:31:20;;;;;;;5.60;5.10;;;;;;;;;;4984129;28;24423;-64
2021/08/15 09:33:45;;;;;;;5.10;4.63;;;;;;;;;;4980940;28;24392;-64
2021/08/15 09:36:13;;;;;;;6.10;5.50;;;;;;;;;;4982366;28;24393;-64
2021/08/15 09:38:45;;;;;;;5.32;4.80;;;;;;;;;;4981893;28;24396;-65
2021/08/15 09:41:23;;;;;;;5.60;5.20;;;;;;;;;;4985364;28;24397;-65
2021/08/15 09:43:48;;;;;;;5.93;5.43;;;;;;;;;;4981955;28;25032;-65
2021/08/15 09:46:13;;;;;;;6.47;5.97;;;;;;;;;;4982217;28;24488;-64
2021/08/15 09:48:40;;;;;;;7.25;6.00;;;;;;;;;;4980266;28;24987;-64
2021/08/15 09:51:07;;;;;;;6.68;6.07;;;;;;;;;;4981903;28;24409;-64
2021/08/15 09:53:34;;;;;;;6.65;5.95;;;;;;;;;;4985268;28;24460;-63
2021/08/15 09:55:59;;;;;;;7.38;6.68;;;;;;;;;;4983865;28;24485;-63
2021/08/15 09:58:25;;;;;;;6.25;5.75;;;;;;;;;;4980186;28;24796;-64
2021/08/15 10:00:52;;;;;;;6.40;5.80;;;;;;;;;;4980390;28;24405;-64
2021/08/15 10:03:17;;;;;;;6.13;5.53;;;;;;;;;;4980277;28;24393;-64
2021/08/15 10:05:45;;;;;;;6.10;5.60;;;;;;;;;;4981843;28;24467;-64
2021/08/15 10:08:10;;;;;;;7.10;6.43;;;;;;;;;;4985118;28;24417;-65
2021/08/15 10:10:36;;;;;;;6.90;6.30;;;;;;;;;;4983322;28;24460;-64
2021/08/15 10:13:02;;;;;;;6.30;5.80;;;;;;;;;;4980196;28;24381;-65
2021/08/15 10:15:27;;;;;;;6.80;6.20;;;;;;;;;;4979766;28;24441;-64
2021/08/15 10:17:53;;;;;;;5.17;4.77;;;;;;;;;;4979944;28;24477;-64
2021/08/15 10:20:20;;;;;;;5.50;5.00;;;;;;;;;;4985301;28;24468;-65
2021/08/15 10:22:46;;;;;;;4.70;4.40;;;;;;;;;;4984969;28;24424;-65
2021/08/15 10:25:29;;;;;;;5.47;4.97;;;;;;;;;;4979855;28;24523;-65
2021/08/15 10:27:54;;;;;;;6.13;5.63;;;;;;;;;;4979549;28;24955;-65
2021/08/15 10:30:19;;;;;;;6.50;5.97;;;;;;;;;;4979727;28;24713;-64
2021/08/15 10:32:57;;;;;;;6.40;5.80;;;;;;;;;;4979910;28;24384;-61
2021/08/15 10:35:29;;;;;;;6.32;5.72;;;;;;;;;;4984758;28;24403;-64
2021/08/15 10:37:58;;;;;;;6.10;5.60;;;;;;;;;;4983079;28;24389;-64
2021/08/15 10:40:39;;;;;;;6.03;5.45;;;;;;;;;;4979280;28;24909;-65
2021/08/15 10:43:08;;;;;;;5.63;5.10;;;;;;;;;;4979534;28;24416;-64
2021/08/15 10:45:34;;;;;;;5.50;5.10;;;;;;;;;;4979383;28;24770;-65
2021/08/15 10:48:19;;;;;;;6.20;5.60;;;;;;;;;;4984675;28;24516;-64
2021/08/15 10:50:49;;;;;;;5.97;5.38;;;;;;;;;;4963923;28;24445;-65
2021/08/15 10:53:26;;;;;;;6.50;5.90;;;;;;;;;;4979338;28;24421;-65
2021/08/15 10:55:52;;;;;;;6.55;5.95;;;;;;;;;;4979213;28;24499;-65
2021/08/15 10:58:33;;;;;;;6.32;5.72;;;;;;;;;;4980581;28;24484;-64
2021/08/15 11:00:58;;;;;;;5.82;5.32;;;;;;;;;;4982956;28;24910;-65
2021/08/15 11:03:24;;;;;;;4.97;4.57;;;;;;;;;;4984713;28;24401;-65
2021/08/15 11:05:50;;;;;;;6.70;6.10;;;;;;;;;;4980476;28;22557;-65
2021/08/15 11:08:31;;;;;;;6.43;5.83;;;;;;;;;;4979322;28;24517;-64
2021/08/15 11:11:04;;;;;;;5.80;5.30;;;;;;;;;;4979165;28;24389;-65
2021/08/15 11:13:31;;;;;;;5.65;5.20;;;;;;;;;;4987531;28;24393;-65
2021/08/15 11:16:16;;;;;;;5.55;5.05;;;;;;;;;;4989424;28;24405;-65
2021/08/15 11:19:01;;;;;;;6.45;5.85;;;;;;;;;;4986836;28;24567;-65
2021/08/15 11:21:46;;;;;;;5.63;5.22;;;;;;;;;;4985325;28;24405;-64
2021/08/15 11:24:12;;;;;;;7.03;6.43;;;;;;;;;;4970045;28;24424;-64
2021/08/15 11:26:37;;;;;;;5.30;4.90;;;;;;;;;;4985127;28;24397;-65
2021/08/15 11:29:04;;;;;;;5.13;4.72;;;;;;;;;;4991028;28;25031;-65
2021/08/15 11:31:35;;;;;;;6.40;5.80;;;;;;;;;;4990355;28;25001;-65
2021/08/15 11:34:07;;;;;;;6.32;5.82;;;;;;;;;;4985148;28;24413;-65
2021/08/15 11:36:32;;;;;;;5.95;5.45;;;;;;;;;;4985130;28;24519;-65
2021/08/15 11:38:57;;;;;;;6.70;6.20;;;;;;;;;;4987171;28;24484;-65
2021/08/15 11:41:23;;;;;;;5.63;5.23;;;;;;;;;;4991053;28;24970;-64
2021/08/15 11:43:57;;;;;;;5.70;5.30;;;;;;;;;;4986776;28;24920;-64
2021/08/15 11:46:22;;;;;;;7.53;6.10;;;;;;;;;;4985394;28;24417;-64
2021/08/15 11:48:47;;;;;;;7.68;5.90;;;;;;;;;;4986825;28;24475;-65
2021/08/15 11:51:12;;;;;;;6.93;5.90;;;;;;;;;;4985313;28;24396;-64
2021/08/15 11:53:38;;;;;;;5.97;5.47;;;;;;;;;;4990554;28;24425;-65
2021/08/15 11:56:08;;;;;;;5.80;5.20;;;;;;;;;;4989122;28;24901;-64
2021/08/15 11:58:33;;;;;;;5.68;5.20;;;;;;;;;;4986507;28;24412;-64
2021/08/15 12:01:05;;;;;;;5.90;5.40;;;;;;;;;;4985253;28;24424;-64
2021/08/15 12:03:30;;;;;;;6.13;4.95;;;;;;;;;;4988594;28;24938;-64
2021/08/15 12:05:56;;;;;;;5.00;4.70;;;;;;;;;;4988626;28;24417;-64
2021/08/15 12:08:31;;;;;;;5.85;5.35;;;;;;;;;;4988364;28;25054;-65
2021/08/15 12:10:56;;;;;;;5.82;5.40;;;;;;;;;;4984711;28;24407;-64
2021/08/15 12:13:37;;;;;;;5.90;5.40;;;;;;;;;;4985031;28;24492;-65
2021/08/15 12:16:02;;;;;;;4.90;4.50;;;;;;;;;;4986706;28;24385;-65
2021/08/15 12:18:47;;;;;;;5.50;4.97;;;;;;;;;;4990276;28;24407;-65
2021/08/15 12:21:26;;;;;;;5.50;5.00;;;;;;;;;;4974282;28;24944;-65
2021/08/15 12:23:57;;;;;;;5.57;5.07;;;;;;;;;;4982495;28;24404;-65
2021/08/15 12:26:43;;;;;;;6.97;5.10;;;;;;;;;;4983974;28;24396;-65
2021/08/15 12:29:30;;;;;;;5.30;4.53;;;;;;;;;;4967327;28;24940;-66
2021/08/15 12:32:01;;;;;;;5.78;5.18;;;;;;;;;;4963651;28;24513;-65
2021/08/15 12:34:26;;;;;;;5.30;4.80;;;;;;;;;;4962136;28;24884;-65
2021/08/15 12:36:52;;;;;;;5.30;4.90;;;;;;;;;;4962112;28;25112;-65
2021/08/15 12:39:24;;;;;;;5.40;5.00;;;;;;;;;;4963735;28;24406;-65
2021/08/15 12:41:52;;;;;;;5.60;4.95;;;;;;;;;;4965599;28;24417;-65
2021/08/15 12:44:19;;;;;;;5.00;4.50;;;;;;;;;;4965820;28;24393;-65
2021/08/15 12:46:44;;;;;;;4.53;4.15;;;;;;;;;;4963640;28;24472;-64
2021/08/15 12:49:20;;;;;;;5.00;4.50;;;;;;;;;;4961611;28;24397;-65
2021/08/15 12:51:46;;;;;;;5.18;4.30;;;;;;;;;;4963488;28;24398;-64
2021/08/15 12:54:11;;;;;;;5.10;4.60;;;;;;;;;;4967569;28;24434;-65
2021/08/15 12:56:36;;;;;;;5.07;4.57;;;;;;;;;;4965408;28;24456;-64
2021/08/15 12:59:01;;;;;;;4.40;4.00;;;;;;;;;;4961569;28;24944;-64
2021/08/15 13:01:26;;;;;;;4.20;3.90;;;;;;;;;;4961566;28;24413;-65
2021/08/15 13:03:51;;;;;;;5.10;4.70;;;;;;;;;;4947681;28;24417;-65
2021/08/15 13:06:24;;;;;;;4.90;4.40;;;;;;;;;;4967099;28;24978;-64
2021/08/15 13:08:49;;;;;;;5.70;4.80;;;;;;;;;;4962857;28;24800;-65
2021/08/15 13:11:15;;;;;;;4.75;4.35;;;;;;;;;;4961805;28;24736;-65
2021/08/15 13:13:40;;;;;;;4.90;4.40;;;;;;;;;;4963133;28;24959;-64
2021/08/15 13:16:05;;;;;;;4.90;4.50;;;;;;;;;;4961683;28;24397;-65
2021/08/15 13:18:30;;;;;;;4.40;4.10;;;;;;;;;;4966793;28;24533;-65
2021/08/15 13:20:55;;;;;;;4.70;4.30;;;;;;;;;;4964754;28;25014;-65
2021/08/15 13:23:20;;;;;;;3.70;3.40;;;;;;;;;;4963349;28;24381;-65
2021/08/15 13:25:49;;;;;;;4.60;4.20;;;;;;;;;;4960876;28;24928;-65
2021/08/15 13:28:18;;;;;;;4.70;4.30;;;;;;;;;;4975245;28;25054;-64
2021/08/15 13:30:43;;;;;;;5.38;4.18;;;;;;;;;;4983545;28;24405;-65
2021/08/15 13:33:08;;;;;;;4.20;3.90;;;;;;;;;;4985628;28;24408;-64
2021/08/15 13:35:33;;;;;;;4.43;4.13;;;;;;;;;;4984186;28;24479;-65
2021/08/15 13:37:58;;;;;;;4.70;4.30;;;;;;;;;;4980137;28;24412;-65
2021/08/15 13:40:24;;;;;;;4.90;4.50;;;;;;;;;;4980391;28;24491;-65
2021/08/15 13:42:49;;;;;;;4.73;4.33;;;;;;;;;;4983351;28;24555;-65
2021/08/15 13:45:14;;;;;;;5.10;4.60;;;;;;;;;;4985763;28;24543;-64
2021/08/15 13:47:40;;;;;;;4.77;4.47;;;;;;;;;;4985460;28;25151;-64
2021/08/15 13:50:06;;;;;;;4.60;4.20;;;;;;;;;;4980113;28;24889;-64
2021/08/15 13:52:31;;;;;;;4.60;4.30;;;;;;;;;;4980490;28;24751;-64
2021/08/15 13:54:56;;;;;;;5.67;4.40;;;;;;;;;;4979480;28;25050;-64
2021/08/15 13:57:22;;;;;;;4.40;4.10;;;;;;;;;;4983854;28;24385;-63
2021/08/15 13:59:51;;;;;;;4.90;4.50;;;;;;;;;;4984664;28;24405;-63
2021/08/15 14:02:16;;;;;;;4.70;4.30;;;;;;;;;;4981837;28;24549;-64
2021/08/15 14:04:41;;;;;;;4.40;4.00;;;;;;;;;;4981867;28;24823;-64
2021/08/15 14:07:06;;;;;;;4.37;4.00;;;;;;;;;;4979712;28;24919;-64
2021/08/15 14:09:31;;;;;;;5.20;4.20;;;;;;;;;;4983444;28;24385;-64
2021/08/15 14:11:57;;;;;;;4.30;4.00;;;;;;;;;;4982826;28;24526;-64
2021/08/15 14:14:22;;;;;;;5.30;3.90;;;;;;;;;;4981410;28;24455;-64
2021/08/15 14:16:48;;;;;;;4.35;3.95;;;;;;;;;;4979283;28;24424;-64
2021/08/15 14:19:13;;;;;;;4.47;3.83;;;;;;;;;;4981169;28;24397;-64
2021/08/15 14:21:38;;;;;;;5.53;3.70;;;;;;;;;;4984761;28;24920;-63
2021/08/15 14:24:04;;;;;;;3.90;3.60;;;;;;;;;;4983061;28;24519;-64
2021/08/15 14:26:29;;;;;;;4.67;3.70;;;;;;;;;;4980815;28;24916;-63
2021/08/15 14:28:54;;;;;;;4.30;3.90;;;;;;;;;;4978932;28;24405;-64
2021/08/15 14:31:19;;;;;;;4.20;3.50;;;;;;;;;;4981544;28;24444;-64
2021/08/15 14:33:44;;;;;;;4.00;3.70;;;;;;;;;;4984568;28;24522;-63